sensor_id;sensor_type;location;lat;lon;timestamp;noise_LAeq;noise_LA_min;noise_LA_max;noise_LA01;noise_LA95
64996;Laerm;51545;51.568;6.998;2023-03-17T00:01:36;40.26;35.30;50.41;;
64996;Laerm;51545;51.568;6.998;2023-03-17T00:04:02;39.00;34.90;47.12;;
64996;Laerm;51545;51.568;6.998;2023-03-17T00:06:29;38.19;33.91;49.55;;
64996;Laerm;51545;51.568;6.998;2023-03-17T00:08:55;40.62;35.81;48.42;;
64996;Laerm;51545;51.568;6.998;2023-03-17T00:11:22;39.56;34.98;47.85;;
64996;Laerm;51545;51.568;6.998;2023-03-17T00:13:48;38.99;35.00;44.53;;
64996;Laerm;51545;51.568;6.998;2023-03-17T00:16:19;40.95;36.15;52.30;;
64996;Laerm;51545;51.568;6.998;2023-03-17T00:18:47;39.34;35.11;45.62;;
64996;Laerm;51545;51.568;6.998;2023-03-17T00:21:15;40.36;35.39;47.87;;
64996;Laerm;51545;51.568;6.998;2023-03-17T00:23:45;41.58;36.23;46.85;;
64996;Laerm;51545;51.568;6.998;2023-03-17T00:26:12;40.48;36.60;44.95;;
64996;Laerm;51545;51.568;6.998;2023-03-17T00:28:38;40.15;35.69;47.07;;
64996;Laerm;51545;51.568;6.998;2023-03-17T00:31:12;39.89;34.79;48.34;;
64996;Laerm;51545;51.568;6.998;2023-03-17T00:33:38;41.19;36.46;47.82;;
64996;Laerm;51545;51.568;6.998;2023-03-17T00:36:05;41.65;35.18;48.78;;
64996;Laerm;51545;51.568;6.998;2023-03-17T00:38:31;40.32;35.31;47.44;;
64996;Laerm;51545;51.568;6.998;2023-03-17T00:40:57;38.58;33.87;60.08;;
64996;Laerm;51545;51.568;6.998;2023-03-17T00:43:22;39.00;34.80;45.22;;
64996;Laerm;51545;51.568;6.998;2023-03-17T00:45:48;39.62;34.37;53.89;;
64996;Laerm;51545;51.568;6.998;2023-03-17T00:48:17;45.30;35.28;58.66;;
64996;Laerm;51545;51.568;6.998;2023-03-17T00:50:44;49.29;39.44;62.16;;
64996;Laerm;51545;51.568;6.998;2023-03-17T00:53:19;48.10;42.19;55.91;;
64996;Laerm;51545;51.568;6.998;2023-03-17T00:55:46;47.78;41.02;57.19;;
64996;Laerm;51545;51.568;6.998;2023-03-17T00:58:22;46.96;40.57;57.23;;
64996;Laerm;51545;51.568;6.998;2023-03-17T01:00:49;47.50;40.02;56.02;;
64996;Laerm;51545;51.568;6.998;2023-03-17T01:03:16;49.41;41.68;59.73;;
64996;Laerm;51545;51.568;6.998;2023-03-17T01:05:41;47.87;41.08;56.55;;
64996;Laerm;51545;51.568;6.998;2023-03-17T01:08:07;48.03;41.53;55.45;;
64996;Laerm;51545;51.568;6.998;2023-03-17T01:10:33;46.30;37.39;57.55;;
64996;Laerm;51545;51.568;6.998;2023-03-17T01:12:59;41.43;37.72;48.20;;
64996;Laerm;51545;51.568;6.998;2023-03-17T01:15:27;42.04;36.64;49.75;;
64996;Laerm;51545;51.568;6.998;2023-03-17T01:17:54;41.30;36.17;46.46;;
64996;Laerm;51545;51.568;6.998;2023-03-17T01:20:23;39.96;35.66;47.05;;
64996;Laerm;51545;51.568;6.998;2023-03-17T01:22:50;40.19;36.49;49.54;;
64996;Laerm;51545;51.568;6.998;2023-03-17T01:25:16;38.69;33.57;55.05;;
64996;Laerm;51545;51.568;6.998;2023-03-17T01:27:43;42.45;34.63;58.71;;
64996;Laerm;51545;51.568;6.998;2023-03-17T01:30:20;43.30;34.81;60.17;;
64996;Laerm;51545;51.568;6.998;2023-03-17T01:32:46;43.31;35.17;63.85;;
64996;Laerm;51545;51.568;6.998;2023-03-17T01:35:12;43.75;35.83;60.59;;
64996;Laerm;51545;51.568;6.998;2023-03-17T01:37:38;43.33;35.67;60.20;;
64996;Laerm;51545;51.568;6.998;2023-03-17T01:40:06;42.52;35.16;59.60;;
64996;Laerm;51545;51.568;6.998;2023-03-17T01:42:34;42.43;36.51;57.16;;
64996;Laerm;51545;51.568;6.998;2023-03-17T01:45:05;42.76;35.74;56.97;;
64996;Laerm;51545;51.568;6.998;2023-03-17T01:47:31;43.59;37.20;56.41;;
64996;Laerm;51545;51.568;6.998;2023-03-17T01:50:04;42.77;36.55;58.30;;
64996;Laerm;51545;51.568;6.998;2023-03-17T01:52:36;42.81;35.17;60.50;;
64996;Laerm;51545;51.568;6.998;2023-03-17T01:55:05;42.53;34.61;57.74;;
64996;Laerm;51545;51.568;6.998;2023-03-17T01:57:39;43.03;36.38;59.01;;
64996;Laerm;51545;51.568;6.998;2023-03-17T02:00:11;42.09;34.63;58.65;;
64996;Laerm;51545;51.568;6.998;2023-03-17T02:02:41;42.43;34.65;58.47;;
64996;Laerm;51545;51.568;6.998;2023-03-17T02:05:10;41.58;32.90;59.88;;
64996;Laerm;51545;51.568;6.998;2023-03-17T02:07:37;42.16;34.07;59.98;;
64996;Laerm;51545;51.568;6.998;2023-03-17T02:10:04;42.40;35.44;56.28;;
64996;Laerm;51545;51.568;6.998;2023-03-17T02:12:30;42.55;36.14;60.72;;
64996;Laerm;51545;51.568;6.998;2023-03-17T02:14:56;42.61;36.35;60.74;;
64996;Laerm;51545;51.568;6.998;2023-03-17T02:17:24;42.40;34.16;60.00;;
64996;Laerm;51545;51.568;6.998;2023-03-17T02:19:50;43.52;35.92;60.59;;
64996;Laerm;51545;51.568;6.998;2023-03-17T02:22:17;42.29;36.39;56.62;;
64996;Laerm;51545;51.568;6.998;2023-03-17T02:24:55;42.02;36.50;54.99;;
64996;Laerm;51545;51.568;6.998;2023-03-17T02:27:29;42.85;34.90;60.07;;
64996;Laerm;51545;51.568;6.998;2023-03-17T02:29:56;42.05;35.08;58.70;;
64996;Laerm;51545;51.568;6.998;2023-03-17T02:32:22;43.74;36.11;61.87;;
64996;Laerm;51545;51.568;6.998;2023-03-17T02:34:48;43.74;35.53;60.02;;
64996;Laerm;51545;51.568;6.998;2023-03-17T02:37:15;43.24;35.33;59.28;;
64996;Laerm;51545;51.568;6.998;2023-03-17T02:39:41;43.85;36.36;62.85;;
64996;Laerm;51545;51.568;6.998;2023-03-17T02:42:07;44.27;37.45;60.41;;
64996;Laerm;51545;51.568;6.998;2023-03-17T02:44:34;43.63;36.43;58.09;;
64996;Laerm;51545;51.568;6.998;2023-03-17T02:46:59;42.91;36.12;57.43;;
64996;Laerm;51545;51.568;6.998;2023-03-17T02:49:25;42.30;35.06;60.51;;
64996;Laerm;51545;51.568;6.998;2023-03-17T02:51:51;42.78;35.45;56.90;;
64996;Laerm;51545;51.568;6.998;2023-03-17T02:54:17;42.61;36.20;55.72;;
64996;Laerm;51545;51.568;6.998;2023-03-17T02:56:43;43.78;37.21;57.57;;
64996;Laerm;51545;51.568;6.998;2023-03-17T02:59:09;44.38;38.18;59.00;;
64996;Laerm;51545;51.568;6.998;2023-03-17T03:01:34;43.10;37.09;57.59;;
64996;Laerm;51545;51.568;6.998;2023-03-17T03:04:00;43.71;37.33;58.67;;
64996;Laerm;51545;51.568;6.998;2023-03-17T03:06:26;44.28;36.85;58.19;;
64996;Laerm;51545;51.568;6.998;2023-03-17T03:08:52;44.31;37.95;59.26;;
64996;Laerm;51545;51.568;6.998;2023-03-17T03:11:18;49.71;37.65;69.18;;
64996;Laerm;51545;51.568;6.998;2023-03-17T03:13:44;48.38;38.66;63.56;;
64996;Laerm;51545;51.568;6.998;2023-03-17T03:16:10;48.46;38.72;66.94;;
64996;Laerm;51545;51.568;6.998;2023-03-17T03:18:35;48.46;39.52;66.61;;
64996;Laerm;51545;51.568;6.998;2023-03-17T03:21:03;50.96;39.64;66.11;;
64996;Laerm;51545;51.568;6.998;2023-03-17T03:23:29;50.56;39.35;67.95;;
64996;Laerm;51545;51.568;6.998;2023-03-17T03:25:55;50.56;36.99;65.85;;
64996;Laerm;51545;51.568;6.998;2023-03-17T03:28:22;50.35;39.21;66.38;;
64996;Laerm;51545;51.568;6.998;2023-03-17T03:30:47;49.78;39.44;65.73;;
64996;Laerm;51545;51.568;6.998;2023-03-17T03:33:14;47.80;39.85;65.39;;
64996;Laerm;51545;51.568;6.998;2023-03-17T03:35:40;45.15;40.46;56.24;;
64996;Laerm;51545;51.568;6.998;2023-03-17T03:38:06;47.62;40.18;63.14;;
64996;Laerm;51545;51.568;6.998;2023-03-17T03:40:33;46.16;40.87;64.02;;
64996;Laerm;51545;51.568;6.998;2023-03-17T03:43:00;46.33;41.61;63.60;;
64996;Laerm;51545;51.568;6.998;2023-03-17T03:45:26;48.59;40.53;65.36;;
64996;Laerm;51545;51.568;6.998;2023-03-17T03:47:51;47.78;41.31;64.71;;
64996;Laerm;51545;51.568;6.998;2023-03-17T03:50:17;47.77;41.04;62.47;;
64996;Laerm;51545;51.568;6.998;2023-03-17T03:52:43;46.52;41.37;60.33;;
64996;Laerm;51545;51.568;6.998;2023-03-17T03:55:08;49.52;41.22;72.11;;
64996;Laerm;51545;51.568;6.998;2023-03-17T03:57:34;50.92;40.09;65.90;;
64996;Laerm;51545;51.568;6.998;2023-03-17T04:00:00;51.19;41.29;66.61;;
64996;Laerm;51545;51.568;6.998;2023-03-17T04:02:26;51.91;42.26;66.35;;
64996;Laerm;51545;51.568;6.998;2023-03-17T04:04:52;51.60;42.40;64.11;;
64996;Laerm;51545;51.568;6.998;2023-03-17T04:07:18;51.95;42.27;67.14;;
64996;Laerm;51545;51.568;6.998;2023-03-17T04:09:46;50.73;41.66;69.84;;
64996;Laerm;51545;51.568;6.998;2023-03-17T04:12:16;52.93;42.47;71.35;;
64996;Laerm;51545;51.568;6.998;2023-03-17T04:14:42;53.82;43.09;70.50;;
64996;Laerm;51545;51.568;6.998;2023-03-17T04:17:10;53.77;42.77;72.58;;
64996;Laerm;51545;51.568;6.998;2023-03-17T04:19:36;55.70;43.65;73.38;;
64996;Laerm;51545;51.568;6.998;2023-03-17T04:22:03;54.37;43.46;72.40;;
64996;Laerm;51545;51.568;6.998;2023-03-17T04:24:28;53.89;43.48;73.11;;
64996;Laerm;51545;51.568;6.998;2023-03-17T04:26:54;54.66;43.04;73.32;;
64996;Laerm;51545;51.568;6.998;2023-03-17T04:29:20;54.66;43.47;73.58;;
64996;Laerm;51545;51.568;6.998;2023-03-17T04:31:46;55.08;44.58;73.51;;
64996;Laerm;51545;51.568;6.998;2023-03-17T04:34:16;55.46;43.76;74.85;;
64996;Laerm;51545;51.568;6.998;2023-03-17T04:36:44;55.19;44.05;73.85;;
64996;Laerm;51545;51.568;6.998;2023-03-17T04:39:10;55.27;43.71;75.26;;
64996;Laerm;51545;51.568;6.998;2023-03-17T04:41:36;55.12;43.86;73.03;;
64996;Laerm;51545;51.568;6.998;2023-03-17T04:44:02;54.58;44.45;70.97;;
64996;Laerm;51545;51.568;6.998;2023-03-17T04:46:28;53.40;44.95;67.74;;
64996;Laerm;51545;51.568;6.998;2023-03-17T04:48:54;53.48;44.88;67.72;;
64996;Laerm;51545;51.568;6.998;2023-03-17T04:51:20;60.60;44.20;78.17;;
64996;Laerm;51545;51.568;6.998;2023-03-17T04:53:45;59.18;44.33;76.15;;
64996;Laerm;51545;51.568;6.998;2023-03-17T04:56:11;52.33;45.43;63.07;;
64996;Laerm;51545;51.568;6.998;2023-03-17T04:58:38;51.93;44.41;63.75;;
64996;Laerm;51545;51.568;6.998;2023-03-17T05:01:03;52.02;45.08;62.73;;
64996;Laerm;51545;51.568;6.998;2023-03-17T05:03:30;53.64;44.48;65.87;;
64996;Laerm;51545;51.568;6.998;2023-03-17T05:05:56;52.83;45.14;64.75;;
64996;Laerm;51545;51.568;6.998;2023-03-17T05:08:22;57.13;44.68;70.83;;
64996;Laerm;51545;51.568;6.998;2023-03-17T05:10:48;56.23;44.67;68.18;;
64996;Laerm;51545;51.568;6.998;2023-03-17T05:13:14;56.42;46.67;67.21;;
64996;Laerm;51545;51.568;6.998;2023-03-17T05:15:46;53.68;45.89;67.20;;
64996;Laerm;51545;51.568;6.998;2023-03-17T05:18:12;52.48;45.59;64.23;;
64996;Laerm;51545;51.568;6.998;2023-03-17T05:20:37;51.02;45.47;69.14;;
64996;Laerm;51545;51.568;6.998;2023-03-17T05:23:03;53.88;44.61;73.59;;
64996;Laerm;51545;51.568;6.998;2023-03-17T05:25:28;55.26;45.52;70.56;;
64996;Laerm;51545;51.568;6.998;2023-03-17T05:27:53;53.64;45.49;67.92;;
64996;Laerm;51545;51.568;6.998;2023-03-17T05:30:19;53.00;45.63;66.07;;
64996;Laerm;51545;51.568;6.998;2023-03-17T05:32:45;52.55;45.34;63.40;;
64996;Laerm;51545;51.568;6.998;2023-03-17T05:35:11;51.75;44.86;62.41;;
64996;Laerm;51545;51.568;6.998;2023-03-17T05:37:36;52.15;46.15;68.78;;
64996;Laerm;51545;51.568;6.998;2023-03-17T05:40:02;51.45;45.49;63.82;;
64996;Laerm;51545;51.568;6.998;2023-03-17T05:42:28;51.46;45.82;67.02;;
64996;Laerm;51545;51.568;6.998;2023-03-17T05:44:53;56.26;45.23;76.39;;
64996;Laerm;51545;51.568;6.998;2023-03-17T05:47:19;52.77;45.39;70.78;;
64996;Laerm;51545;51.568;6.998;2023-03-17T05:49:45;51.80;45.94;63.19;;
64996;Laerm;51545;51.568;6.998;2023-03-17T05:52:11;53.55;45.07;73.53;;
64996;Laerm;51545;51.568;6.998;2023-03-17T05:54:36;53.80;46.15;73.97;;
64996;Laerm;51545;51.568;6.998;2023-03-17T05:57:02;52.06;46.31;69.07;;
64996;Laerm;51545;51.568;6.998;2023-03-17T05:59:28;54.16;45.82;75.54;;
64996;Laerm;51545;51.568;6.998;2023-03-17T06:01:54;58.42;45.97;77.17;;
64996;Laerm;51545;51.568;6.998;2023-03-17T06:04:19;57.00;45.67;76.40;;
64996;Laerm;51545;51.568;6.998;2023-03-17T06:06:45;53.29;45.37;73.40;;
64996;Laerm;51545;51.568;6.998;2023-03-17T06:09:10;51.61;45.89;67.41;;
64996;Laerm;51545;51.568;6.998;2023-03-17T06:11:36;53.29;45.13;69.89;;
64996;Laerm;51545;51.568;6.998;2023-03-17T06:14:02;52.40;44.92;69.94;;
64996;Laerm;51545;51.568;6.998;2023-03-17T06:16:27;51.81;44.43;63.69;;
64996;Laerm;51545;51.568;6.998;2023-03-17T06:18:54;52.00;45.20;70.53;;
64996;Laerm;51545;51.568;6.998;2023-03-17T06:21:20;54.36;45.15;76.17;;
64996;Laerm;51545;51.568;6.998;2023-03-17T06:23:46;56.23;45.42;74.98;;
64996;Laerm;51545;51.568;6.998;2023-03-17T06:26:11;54.52;46.33;73.54;;
64996;Laerm;51545;51.568;6.998;2023-03-17T06:28:37;50.62;44.60;63.20;;
64996;Laerm;51545;51.568;6.998;2023-03-17T06:31:02;51.36;44.88;65.42;;
64996;Laerm;51545;51.568;6.998;2023-03-17T06:33:28;50.01;44.47;60.79;;
64996;Laerm;51545;51.568;6.998;2023-03-17T06:35:54;50.40;45.17;64.08;;
64996;Laerm;51545;51.568;6.998;2023-03-17T06:38:19;52.69;45.14;71.16;;
64996;Laerm;51545;51.568;6.998;2023-03-17T06:40:45;50.40;44.87;62.37;;
64996;Laerm;51545;51.568;6.998;2023-03-17T06:43:10;55.70;45.14;75.75;;
64996;Laerm;51545;51.568;6.998;2023-03-17T06:45:36;57.77;45.65;74.33;;
64996;Laerm;51545;51.568;6.998;2023-03-17T06:48:01;52.36;45.21;70.53;;
64996;Laerm;51545;51.568;6.998;2023-03-17T06:50:28;54.61;44.82;74.85;;
64996;Laerm;51545;51.568;6.998;2023-03-17T06:52:53;52.52;44.99;66.87;;
64996;Laerm;51545;51.568;6.998;2023-03-17T06:55:19;50.04;45.40;62.34;;
64996;Laerm;51545;51.568;6.998;2023-03-17T06:57:45;53.49;43.67;71.20;;
64996;Laerm;51545;51.568;6.998;2023-03-17T07:00:11;50.98;43.26;65.70;;
64996;Laerm;51545;51.568;6.998;2023-03-17T07:02:38;47.44;43.32;57.67;;
64996;Laerm;51545;51.568;6.998;2023-03-17T07:05:04;57.67;42.66;78.43;;
64996;Laerm;51545;51.568;6.998;2023-03-17T07:07:30;52.88;43.30;71.91;;
64996;Laerm;51545;51.568;6.998;2023-03-17T07:09:56;51.65;42.56;71.09;;
64996;Laerm;51545;51.568;6.998;2023-03-17T07:12:22;56.86;42.74;76.35;;
64996;Laerm;51545;51.568;6.998;2023-03-17T07:14:48;55.81;42.04;76.32;;
64996;Laerm;51545;51.568;6.998;2023-03-17T07:17:14;45.75;42.12;60.19;;
64996;Laerm;51545;51.568;6.998;2023-03-17T07:19:40;48.84;41.92;70.58;;
64996;Laerm;51545;51.568;6.998;2023-03-17T07:22:08;57.78;41.88;77.34;;
64996;Laerm;51545;51.568;6.998;2023-03-17T07:24:33;55.25;41.53;75.38;;
64996;Laerm;51545;51.568;6.998;2023-03-17T07:26:59;46.40;41.22;59.87;;
64996;Laerm;51545;51.568;6.998;2023-03-17T07:29:24;52.67;40.95;71.46;;
64996;Laerm;51545;51.568;6.998;2023-03-17T07:31:51;46.98;40.86;63.08;;
64996;Laerm;51545;51.568;6.998;2023-03-17T07:34:17;56.98;41.40;76.15;;
64996;Laerm;51545;51.568;6.998;2023-03-17T07:36:43;57.75;40.59;75.31;;
64996;Laerm;51545;51.568;6.998;2023-03-17T07:39:08;52.16;40.87;74.22;;
64996;Laerm;51545;51.568;6.998;2023-03-17T07:41:35;52.28;40.56;75.38;;
64996;Laerm;51545;51.568;6.998;2023-03-17T07:44:01;54.88;40.90;75.24;;
64996;Laerm;51545;51.568;6.998;2023-03-17T07:46:28;46.56;40.99;65.14;;
64996;Laerm;51545;51.568;6.998;2023-03-17T07:48:54;47.67;40.97;64.01;;
64996;Laerm;51545;51.568;6.998;2023-03-17T07:51:21;53.34;40.49;75.51;;
64996;Laerm;51545;51.568;6.998;2023-03-17T07:53:48;48.27;40.98;63.96;;
64996;Laerm;51545;51.568;6.998;2023-03-17T07:56:15;48.44;41.03;62.12;;
64996;Laerm;51545;51.568;6.998;2023-03-17T07:58:42;55.62;40.20;75.27;;
64996;Laerm;51545;51.568;6.998;2023-03-17T08:01:07;58.69;40.72;80.31;;
64996;Laerm;51545;51.568;6.998;2023-03-17T08:03:34;51.46;41.67;73.73;;
64996;Laerm;51545;51.568;6.998;2023-03-17T08:05:59;48.00;41.17;65.47;;
64996;Laerm;51545;51.568;6.998;2023-03-17T08:08:26;46.90;40.54;63.25;;
64996;Laerm;51545;51.568;6.998;2023-03-17T08:10:57;46.14;40.96;58.52;;
64996;Laerm;51545;51.568;6.998;2023-03-17T08:13:25;52.92;42.54;68.13;;
64996;Laerm;51545;51.568;6.998;2023-03-17T08:15:51;52.89;41.90;70.23;;
64996;Laerm;51545;51.568;6.998;2023-03-17T08:18:17;51.38;42.16;69.38;;
64996;Laerm;51545;51.568;6.998;2023-03-17T08:20:43;52.10;41.71;70.00;;
64996;Laerm;51545;51.568;6.998;2023-03-17T08:23:08;55.41;40.45;75.41;;
64996;Laerm;51545;51.568;6.998;2023-03-17T08:25:34;57.17;40.53;77.66;;
64996;Laerm;51545;51.568;6.998;2023-03-17T08:27:59;57.05;41.44;76.64;;
64996;Laerm;51545;51.568;6.998;2023-03-17T08:30:25;56.36;41.33;76.69;;
64996;Laerm;51545;51.568;6.998;2023-03-17T08:32:51;48.53;40.88;78.24;;
64996;Laerm;51545;51.568;6.998;2023-03-17T08:35:18;49.80;41.38;71.82;;
64996;Laerm;51545;51.568;6.998;2023-03-17T08:37:47;56.84;41.66;78.49;;
64996;Laerm;51545;51.568;6.998;2023-03-17T08:40:15;46.12;41.72;66.80;;
64996;Laerm;51545;51.568;6.998;2023-03-17T08:42:45;45.79;41.52;52.51;;
64996;Laerm;51545;51.568;6.998;2023-03-17T08:45:12;48.29;41.63;61.45;;
64996;Laerm;51545;51.568;6.998;2023-03-17T08:47:38;49.01;42.60;61.57;;
64996;Laerm;51545;51.568;6.998;2023-03-17T08:50:09;48.03;42.62;61.62;;
64996;Laerm;51545;51.568;6.998;2023-03-17T08:52:36;47.82;42.15;63.29;;
64996;Laerm;51545;51.568;6.998;2023-03-17T08:55:02;46.07;41.06;66.02;;
64996;Laerm;51545;51.568;6.998;2023-03-17T08:57:27;46.41;40.75;60.08;;
64996;Laerm;51545;51.568;6.998;2023-03-17T08:59:53;47.38;40.96;63.10;;
64996;Laerm;51545;51.568;6.998;2023-03-17T09:02:19;55.29;41.88;77.82;;
64996;Laerm;51545;51.568;6.998;2023-03-17T09:04:45;50.01;40.68;71.01;;
64996;Laerm;51545;51.568;6.998;2023-03-17T09:07:11;45.80;41.19;59.28;;
64996;Laerm;51545;51.568;6.998;2023-03-17T09:09:37;45.77;41.20;59.17;;
64996;Laerm;51545;51.568;6.998;2023-03-17T09:12:04;51.62;42.26;63.13;;
64996;Laerm;51545;51.568;6.998;2023-03-17T09:14:31;44.48;40.34;58.46;;
64996;Laerm;51545;51.568;6.998;2023-03-17T09:16:57;50.88;40.37;72.17;;
64996;Laerm;51545;51.568;6.998;2023-03-17T09:19:23;51.66;40.28;69.78;;
64996;Laerm;51545;51.568;6.998;2023-03-17T09:21:51;54.66;39.67;72.93;;
64996;Laerm;51545;51.568;6.998;2023-03-17T09:24:19;54.85;39.31;73.81;;
64996;Laerm;51545;51.568;6.998;2023-03-17T09:26:45;54.67;40.25;71.19;;
64996;Laerm;51545;51.568;6.998;2023-03-17T09:29:11;55.30;40.47;71.71;;
64996;Laerm;51545;51.568;6.998;2023-03-17T09:31:37;53.51;38.82;73.41;;
64996;Laerm;51545;51.568;6.998;2023-03-17T09:34:03;46.45;40.81;64.76;;
64996;Laerm;51545;51.568;6.998;2023-03-17T09:36:30;45.45;40.45;58.46;;
64996;Laerm;51545;51.568;6.998;2023-03-17T09:38:58;44.38;40.21;58.36;;
64996;Laerm;51545;51.568;6.998;2023-03-17T09:41:33;45.15;40.10;60.37;;
64996;Laerm;51545;51.568;6.998;2023-03-17T09:47:20;44.12;40.59;60.68;;
64996;Laerm;51545;51.568;6.998;2023-03-17T09:49:57;48.87;40.41;70.30;;
64996;Laerm;51545;51.568;6.998;2023-03-17T09:52:30;52.71;39.61;72.18;;
64996;Laerm;51545;51.568;6.998;2023-03-17T09:54:56;57.83;39.57;77.31;;
64996;Laerm;51545;51.568;6.998;2023-03-17T10:00:12;56.68;39.13;75.16;;
64996;Laerm;51545;51.568;6.998;2023-03-17T10:02:39;55.88;39.58;75.03;;
64996;Laerm;51545;51.568;6.998;2023-03-17T10:07:45;46.50;39.58;60.02;;
64996;Laerm;51545;51.568;6.998;2023-03-17T10:10:38;43.26;38.29;58.06;;
64996;Laerm;51545;51.568;6.998;2023-03-17T10:16:44;43.80;39.15;62.47;;
64996;Laerm;51545;51.568;6.998;2023-03-17T10:21:50;54.32;38.52;76.88;;
64996;Laerm;51545;51.568;6.998;2023-03-17T10:24:18;50.50;39.71;68.24;;
64996;Laerm;51545;51.568;6.998;2023-03-17T10:26:51;53.61;38.97;72.84;;
64996;Laerm;51545;51.568;6.998;2023-03-17T10:29:21;45.26;38.52;67.96;;
64996;Laerm;51545;51.568;6.998;2023-03-17T10:31:49;46.26;38.55;57.73;;
64996;Laerm;51545;51.568;6.998;2023-03-17T10:34:26;47.34;37.89;66.79;;
64996;Laerm;51545;51.568;6.998;2023-03-17T10:37:06;44.82;38.21;62.38;;
64996;Laerm;51545;51.568;6.998;2023-03-17T10:39:43;44.57;38.09;62.52;;
64996;Laerm;51545;51.568;6.998;2023-03-17T10:42:12;45.42;39.45;60.60;;
64996;Laerm;51545;51.568;6.998;2023-03-17T10:44:49;48.24;39.59;64.93;;
64996;Laerm;51545;51.568;6.998;2023-03-17T10:47:20;52.21;39.46;77.86;;
64996;Laerm;51545;51.568;6.998;2023-03-17T10:49:47;47.60;38.26;67.48;;
64996;Laerm;51545;51.568;6.998;2023-03-17T10:52:20;43.93;38.65;61.69;;
64996;Laerm;51545;51.568;6.998;2023-03-17T10:54:48;54.88;38.54;73.56;;
64996;Laerm;51545;51.568;6.998;2023-03-17T10:57:15;56.43;39.23;75.88;;
64996;Laerm;51545;51.568;6.998;2023-03-17T10:59:48;56.15;40.00;74.65;;
64996;Laerm;51545;51.568;6.998;2023-03-17T11:04:48;56.88;37.97;77.35;;
64996;Laerm;51545;51.568;6.998;2023-03-17T11:07:17;57.16;39.38;77.71;;
64996;Laerm;51545;51.568;6.998;2023-03-17T11:09:47;57.35;39.57;79.26;;
64996;Laerm;51545;51.568;6.998;2023-03-17T11:12:28;56.04;40.42;74.15;;
64996;Laerm;51545;51.568;6.998;2023-03-17T11:14:58;55.18;40.41;76.47;;
64996;Laerm;51545;51.568;6.998;2023-03-17T11:20:23;50.29;39.98;74.02;;
64996;Laerm;51545;51.568;6.998;2023-03-17T11:23:13;48.42;40.30;65.81;;
64996;Laerm;51545;51.568;6.998;2023-03-17T11:25:42;48.14;38.97;67.37;;
64996;Laerm;51545;51.568;6.998;2023-03-17T11:28:16;48.41;40.40;68.60;;
64996;Laerm;51545;51.568;6.998;2023-03-17T11:30:52;49.89;38.90;69.53;;
64996;Laerm;51545;51.568;6.998;2023-03-17T11:33:35;54.33;39.23;76.68;;
64996;Laerm;51545;51.568;6.998;2023-03-17T11:36:17;53.55;38.69;77.62;;
64996;Laerm;51545;51.568;6.998;2023-03-17T11:38:58;49.26;40.00;72.03;;
64996;Laerm;51545;51.568;6.998;2023-03-17T11:41:41;49.25;39.62;68.31;;
64996;Laerm;51545;51.568;6.998;2023-03-17T11:44:29;50.86;40.75;68.12;;
64996;Laerm;51545;51.568;6.998;2023-03-17T11:47:10;50.02;40.51;68.20;;
64996;Laerm;51545;51.568;6.998;2023-03-17T11:49:46;54.06;40.25;76.74;;
64996;Laerm;51545;51.568;6.998;2023-03-17T11:52:27;49.71;39.54;71.61;;
64996;Laerm;51545;51.568;6.998;2023-03-17T11:58:39;46.69;38.19;62.85;;
64996;Laerm;51545;51.568;6.998;2023-03-17T12:00:59;45.65;38.84;64.16;;
64996;Laerm;51545;51.568;6.998;2023-03-17T12:06:38;46.47;37.91;65.85;;
64996;Laerm;51545;51.568;6.998;2023-03-17T12:11:42;55.93;37.61;75.64;;
64996;Laerm;51545;51.568;6.998;2023-03-17T12:14:19;44.30;38.75;62.08;;
64996;Laerm;51545;51.568;6.998;2023-03-17T12:16:50;47.87;38.56;72.25;;
64996;Laerm;51545;51.568;6.998;2023-03-17T12:19:43;54.87;39.60;74.41;;
64996;Laerm;51545;51.568;6.998;2023-03-17T12:24:52;46.81;40.12;61.25;;
64996;Laerm;51545;51.568;6.998;2023-03-17T12:27:49;51.08;39.04;70.91;;
64996;Laerm;51545;51.568;6.998;2023-03-17T12:30:29;56.39;37.70;76.39;;
64996;Laerm;51545;51.568;6.998;2023-03-17T12:33:08;48.19;37.71;70.19;;
64996;Laerm;51545;51.568;6.998;2023-03-17T12:35:36;52.66;38.73;71.61;;
64996;Laerm;51545;51.568;6.998;2023-03-17T12:41:10;48.55;38.61;68.91;;
64996;Laerm;51545;51.568;6.998;2023-03-17T12:49:38;52.61;38.93;72.03;;
64996;Laerm;51545;51.568;6.998;2023-03-17T12:55:11;53.99;39.52;72.68;;
64996;Laerm;51545;51.568;6.998;2023-03-17T12:57:40;45.33;39.01;66.22;;
64996;Laerm;51545;51.568;6.998;2023-03-17T13:00:21;50.06;39.65;70.93;;
64996;Laerm;51545;51.568;6.998;2023-03-17T13:03:03;56.28;40.42;74.67;;
64996;Laerm;51545;51.568;6.998;2023-03-17T13:05:31;53.81;39.22;73.49;;
64996;Laerm;51545;51.568;6.998;2023-03-17T13:08:00;53.80;40.39;74.19;;
64996;Laerm;51545;51.568;6.998;2023-03-17T13:10:45;45.89;40.34;63.10;;
64996;Laerm;51545;51.568;6.998;2023-03-17T13:13:34;46.50;39.55;62.82;;
64996;Laerm;51545;51.568;6.998;2023-03-17T13:16:03;45.47;40.72;56.65;;
64996;Laerm;51545;51.568;6.998;2023-03-17T13:26:06;46.84;40.35;60.11;;
64996;Laerm;51545;51.568;6.998;2023-03-17T13:33:53;56.14;39.85;74.93;;
64996;Laerm;51545;51.568;6.998;2023-03-17T13:45:39;47.83;41.46;69.03;;
64996;Laerm;51545;51.568;6.998;2023-03-17T13:48:34;48.31;40.94;65.27;;
64996;Laerm;51545;51.568;6.998;2023-03-17T13:53:39;50.02;38.91;74.19;;
64996;Laerm;51545;51.568;6.998;2023-03-17T13:56:10;50.45;40.39;74.31;;
64996;Laerm;51545;51.568;6.998;2023-03-17T13:59:05;46.33;40.73;62.39;;
64996;Laerm;51545;51.568;6.998;2023-03-17T14:01:37;46.34;41.26;62.71;;
64996;Laerm;51545;51.568;6.998;2023-03-17T14:04:08;45.48;40.39;58.77;;
64996;Laerm;51545;51.568;6.998;2023-03-17T14:06:37;52.15;40.70;72.94;;
64996;Laerm;51545;51.568;6.998;2023-03-17T14:09:14;48.90;40.92;64.34;;
64996;Laerm;51545;51.568;6.998;2023-03-17T14:11:44;54.75;40.88;75.46;;
64996;Laerm;51545;51.568;6.998;2023-03-17T14:14:21;57.29;40.13;77.37;;
64996;Laerm;51545;51.568;6.998;2023-03-17T14:17:15;47.15;40.51;65.44;;
64996;Laerm;51545;51.568;6.998;2023-03-17T14:22:44;48.21;42.28;63.86;;
64996;Laerm;51545;51.568;6.998;2023-03-17T14:25:38;47.88;41.04;63.88;;
64996;Laerm;51545;51.568;6.998;2023-03-17T14:28:05;50.94;40.60;68.07;;
64996;Laerm;51545;51.568;6.998;2023-03-17T14:30:33;50.26;41.13;65.56;;
64996;Laerm;51545;51.568;6.998;2023-03-17T14:33:20;49.33;41.36;69.04;;
64996;Laerm;51545;51.568;6.998;2023-03-17T14:35:49;56.19;40.77;74.27;;
64996;Laerm;51545;51.568;6.998;2023-03-17T14:38:24;52.29;42.46;74.57;;
64996;Laerm;51545;51.568;6.998;2023-03-17T14:41:02;49.07;41.11;67.41;;
64996;Laerm;51545;51.568;6.998;2023-03-17T14:43:33;49.30;42.75;66.87;;
64996;Laerm;51545;51.568;6.998;2023-03-17T14:46:04;50.38;42.36;66.95;;
64996;Laerm;51545;51.568;6.998;2023-03-17T14:48:33;51.30;42.97;62.32;;
64996;Laerm;51545;51.568;6.998;2023-03-17T14:51:07;52.83;43.40;70.27;;
64996;Laerm;51545;51.568;6.998;2023-03-17T14:53:34;54.15;43.52;72.30;;
64996;Laerm;51545;51.568;6.998;2023-03-17T14:56:01;53.93;43.49;74.81;;
64996;Laerm;51545;51.568;6.998;2023-03-17T14:58:36;50.15;41.17;68.77;;
64996;Laerm;51545;51.568;6.998;2023-03-17T15:01:17;48.15;41.60;65.34;;
64996;Laerm;51545;51.568;6.998;2023-03-17T15:03:56;50.27;41.29;73.29;;
64996;Laerm;51545;51.568;6.998;2023-03-17T15:06:27;50.68;42.54;73.27;;